Time;durP1;ratioP1;P1;durP2;ratioP2;P2;SDS_P1;SDS_P2;PMS_P1;PMS_P2;Temp;Humidity;BMP_temperature;BMP_pressure;BME280_temperature;BME280_humidity;BME280_pressure;Samples;Min_cycle;Max_cycle;Signal;HPM_P1;HPM_P2
2021/10/03 00:01:49;;;;;;;7.05;3.78;;;18.70;99.90;;;;;;5093565;28;20062;-69
2021/10/03 00:04:16;;;;;;;6.32;3.90;;;18.70;99.90;;;;;;5095392;28;20107;-69
2021/10/03 00:06:43;;;;;;;7.43;3.78;;;18.70;99.90;;;;;;5094505;28;20089;-69
2021/10/03 00:09:09;;;;;;;4.57;3.75;;;18.70;99.90;;;;;;5093633;28;20020;-69
2021/10/03 00:11:35;;;;;;;7.85;3.55;;;18.80;99.90;;;;;;5095278;28;20078;-69
2021/10/03 00:14:01;;;;;;;6.40;4.00;;;18.70;99.90;;;;;;5095233;28;20020;-69
2021/10/03 00:16:27;;;;;;;8.30;4.32;;;18.70;99.90;;;;;;5095194;28;20028;-69
2021/10/03 00:18:53;;;;;;;5.38;3.67;;;18.70;99.90;;;;;;5095118;28;20021;-69
2021/10/03 00:21:19;;;;;;;6.35;3.90;;;18.70;99.90;;;;;;5094886;28;20054;-70
2021/10/03 00:23:44;;;;;;;8.98;4.38;;;18.70;99.90;;;;;;5094763;28;20020;-69
2021/10/03 00:26:10;;;;;;;5.45;3.65;;;18.70;99.90;;;;;;5094989;28;20406;-69
2021/10/03 00:28:35;;;;;;;7.13;4.20;;;18.70;99.90;;;;;;5094947;28;20020;-69
2021/10/03 00:31:01;;;;;;;6.13;3.97;;;18.60;99.90;;;;;;5094346;28;20031;-69
2021/10/03 00:33:27;;;;;;;7.80;4.13;;;18.60;99.90;;;;;;5093424;28;20032;-69
2021/10/03 00:35:53;;;;;;;6.25;3.90;;;18.60;99.90;;;;;;5094555;28;20381;-69
2021/10/03 00:38:18;;;;;;;8.15;4.78;;;18.60;99.90;;;;;;5094520;28;20039;-69
2021/10/03 00:40:45;;;;;;;7.60;4.03;;;18.50;99.90;;;;;;5094446;28;20020;-70
2021/10/03 00:43:13;;;;;;;4.93;3.92;;;18.50;99.90;;;;;;5094339;28;20534;-69
2021/10/03 00:45:40;;;;;;;4.97;4.35;;;18.50;99.90;;;;;;5094128;28;20082;-69
2021/10/03 00:48:06;;;;;;;6.97;4.90;;;18.50;99.90;;;;;;5094649;28;20031;-69
2021/10/03 00:50:33;;;;;;;8.60;5.22;;;18.40;99.90;;;;;;5094597;28;20016;-69
2021/10/03 00:52:59;;;;;;;7.15;4.90;;;18.40;99.90;;;;;;5094571;28;20377;-69
2021/10/03 00:55:27;;;;;;;6.30;4.45;;;18.30;99.90;;;;;;5094503;28;20024;-69
2021/10/03 00:57:53;;;;;;;7.80;5.15;;;18.20;99.90;;;;;;5094486;28;20027;-69
2021/10/03 01:00:23;;;;;;;6.85;4.75;;;18.20;99.90;;;;;;5094135;28;20075;-69
2021/10/03 01:02:48;;;;;;;8.18;4.72;;;18.20;99.90;;;;;;5094353;28;20020;-69
2021/10/03 01:05:14;;;;;;;5.97;4.65;;;18.20;99.90;;;;;;5094080;28;20031;-69
2021/10/03 01:07:40;;;;;;;8.00;5.03;;;18.20;99.90;;;;;;5094322;28;20020;-69
2021/10/03 01:10:08;;;;;;;10.60;7.28;;;18.20;99.90;;;;;;5092815;28;20480;-69
2021/10/03 01:12:34;;;;;;;10.98;6.80;;;18.20;99.90;;;;;;5094253;28;20028;-69
2021/10/03 01:15:02;;;;;;;12.15;7.95;;;18.10;99.90;;;;;;5093958;28;20032;-69
2021/10/03 01:17:28;;;;;;;7.32;5.50;;;18.00;99.90;;;;;;5094063;28;20020;-69
2021/10/03 01:19:53;;;;;;;5.82;4.93;;;18.00;99.90;;;;;;5092726;28;20035;-69
2021/10/03 01:22:19;;;;;;;6.75;5.18;;;18.00;99.90;;;;;;5093583;28;20476;-69
2021/10/03 01:24:45;;;;;;;24.30;6.55;;;17.90;99.90;;;;;;5093897;28;20088;-69
2021/10/03 01:27:11;;;;;;;19.88;5.32;;;17.90;99.90;;;;;;5094135;28;20024;-69
2021/10/03 01:29:36;;;;;;;5.07;3.90;;;17.90;99.90;;;;;;5094125;28;20076;-69
2021/10/03 01:32:02;;;;;;;5.82;4.00;;;17.90;99.90;;;;;;5094609;28;20453;-68
2021/10/03 01:34:28;;;;;;;6.45;3.90;;;17.90;99.90;;;;;;5093092;28;20023;-69
2021/10/03 01:36:54;;;;;;;7.22;4.40;;;18.00;99.90;;;;;;5093785;28;20035;-69
2021/10/03 01:39:19;;;;;;;8.52;4.60;;;17.90;99.90;;;;;;5093763;28;20028;-69
2021/10/03 01:41:45;;;;;;;7.88;4.38;;;18.00;99.90;;;;;;5093952;28;20154;-69
2021/10/03 01:44:10;;;;;;;4.75;4.07;;;17.90;99.90;;;;;;5093974;28;20069;-69
2021/10/03 01:46:36;;;;;;;4.50;4.05;;;17.80;99.90;;;;;;5094012;28;20528;-69
2021/10/03 01:49:02;;;;;;;5.47;4.00;;;18.00;99.90;;;;;;5093663;28;20431;-69
2021/10/03 01:51:29;;;;;;;5.32;3.50;;;17.90;99.90;;;;;;5092218;28;20032;-69
2021/10/03 01:53:58;;;;;;;4.82;3.70;;;17.90;99.90;;;;;;5093614;28;20020;-69
2021/10/03 01:56:25;;;;;;;13.20;3.90;;;18.10;99.90;;;;;;5093881;28;20027;-69
2021/10/03 01:58:54;;;;;;;9.45;3.85;;;18.10;99.90;;;;;;5093566;28;20020;-69
2021/10/03 02:01:25;;;;;;;6.70;4.28;;;18.10;99.90;;;;;;5093730;28;20111;-69
2021/10/03 02:03:51;;;;;;;5.93;3.70;;;18.10;99.90;;;;;;5093538;28;20031;-69
2021/10/03 02:06:17;;;;;;;5.18;3.97;;;18.20;99.90;;;;;;5092819;28;20024;-69
2021/10/03 02:08:43;;;;;;;5.45;3.80;;;18.10;99.90;;;;;;5093755;28;20016;-69
2021/10/03 02:11:08;;;;;;;5.35;3.95;;;18.20;99.90;;;;;;5093734;28;20526;-69
2021/10/03 02:13:34;;;;;;;4.63;3.47;;;18.20;99.90;;;;;;5093710;28;20035;-69
2021/10/03 02:16:01;;;;;;;8.45;4.00;;;18.20;99.90;;;;;;5093653;28;20067;-69
2021/10/03 02:18:34;;;;;;;4.80;3.65;;;18.20;99.90;;;;;;5093688;28;20377;-69
2021/10/03 02:21:01;;;;;;;4.65;3.45;;;18.30;99.90;;;;;;5093157;28;20032;-70
2021/10/03 02:23:26;;;;;;;4.30;3.67;;;18.30;99.90;;;;;;5093249;28;20078;-69
2021/10/03 02:25:52;;;;;;;4.68;3.67;;;18.40;99.90;;;;;;5093592;28;20016;-69
2021/10/03 02:28:20;;;;;;;3.42;3.13;;;18.30;99.90;;;;;;5093312;28;20021;-69
2021/10/03 02:30:48;;;;;;;4.25;3.25;;;18.40;99.90;;;;;;5096345;28;20107;-69
2021/10/03 02:33:14;;;;;;;7.00;3.80;;;18.30;99.90;;;;;;5097203;28;20049;-69
2021/10/03 02:35:41;;;;;;;7.93;3.75;;;18.40;99.90;;;;;;5097170;28;20024;-69
2021/10/03 02:38:09;;;;;;;6.10;3.72;;;18.30;99.90;;;;;;5097141;28;20554;-69
2021/10/03 02:40:35;;;;;;;4.93;3.47;;;18.40;99.90;;;;;;5096779;28;20032;-69
2021/10/03 02:43:05;;;;;;;4.30;3.50;;;18.30;99.90;;;;;;5095499;28;20020;-69
2021/10/03 02:45:32;;;;;;;5.43;3.25;;;18.30;99.90;;;;;;5097005;28;20442;-69
2021/10/03 02:47:58;;;;;;;5.90;3.90;;;18.40;99.90;;;;;;5096947;28;20482;-69
2021/10/03 02:50:23;;;;;;;4.53;3.50;;;18.40;99.90;;;;;;5096876;28;20024;-69
2021/10/03 02:52:49;;;;;;;6.85;3.55;;;18.40;99.90;;;;;;5095362;28;20024;-69
2021/10/03 02:55:14;;;;;;;4.82;3.50;;;18.30;99.90;;;;;;5096771;28;20377;-69
2021/10/03 02:57:40;;;;;;;5.18;3.58;;;18.30;99.90;;;;;;5096463;28;20374;-69
2021/10/03 03:00:07;;;;;;;5.75;3.65;;;18.30;99.90;;;;;;5096717;28;20119;-69
2021/10/03 03:02:33;;;;;;;6.47;3.58;;;18.30;99.90;;;;;;5096289;28;20125;-69
2021/10/03 03:04:59;;;;;;;6.25;3.90;;;18.20;99.90;;;;;;5096611;28;20461;-70
2021/10/03 03:07:24;;;;;;;4.47;3.47;;;18.10;99.90;;;;;;5095981;28;20036;-70
2021/10/03 03:09:50;;;;;;;4.22;3.67;;;18.10;99.90;;;;;;5096222;28;20024;-68
2021/10/03 03:12:15;;;;;;;5.00;3.22;;;18.20;99.90;;;;;;5096183;28;20086;-69
2021/10/03 03:14:41;;;;;;;4.10;3.50;;;18.30;99.90;;;;;;5094980;28;20446;-69
2021/10/03 03:17:16;;;;;;;4.10;3.42;;;18.40;99.90;;;;;;5096369;28;20035;-69
2021/10/03 03:19:42;;;;;;;6.07;3.30;;;18.40;99.90;;;;;;5096041;28;20028;-69
2021/10/03 03:22:09;;;;;;;4.03;3.50;;;18.40;99.90;;;;;;5095459;28;20047;-69
2021/10/03 03:24:34;;;;;;;4.13;3.33;;;18.50;99.90;;;;;;5095976;28;20031;-69
2021/10/03 03:27:00;;;;;;;3.50;3.10;;;18.40;99.90;;;;;;5095923;28;20376;-69
2021/10/03 03:29:25;;;;;;;4.65;3.20;;;18.50;99.90;;;;;;5096145;28;20021;-69
2021/10/03 03:31:53;;;;;;;3.75;3.17;;;18.50;99.90;;;;;;5096075;28;20032;-69
2021/10/03 03:34:19;;;;;;;5.50;3.53;;;18.50;99.90;;;;;;5095761;28;20020;-69
2021/10/03 03:36:44;;;;;;;5.53;3.47;;;18.50;99.90;;;;;;5095740;28;20024;-69
2021/10/03 03:39:10;;;;;;;4.95;3.20;;;18.50;99.90;;;;;;5095939;28;20461;-70
2021/10/03 03:41:35;;;;;;;6.10;3.70;;;18.50;99.90;;;;;;5095550;28;20413;-69
2021/10/03 03:44:01;;;;;;;5.43;3.80;;;18.40;99.90;;;;;;5095832;28;20020;-70
2021/10/03 03:46:26;;;;;;;4.97;3.40;;;18.50;99.90;;;;;;5095802;28;20052;-69
2021/10/03 03:48:52;;;;;;;7.38;3.63;;;18.50;99.90;;;;;;5095195;28;20016;-70
2021/10/03 03:51:17;;;;;;;4.50;3.10;;;18.40;99.90;;;;;;5094583;28;20028;-69
2021/10/03 03:53:43;;;;;;;7.72;3.60;;;18.50;99.90;;;;;;5095379;28;20377;-69
2021/10/03 03:56:10;;;;;;;4.53;4.07;;;18.40;99.90;;;;;;5095613;28;20026;-69
2021/10/03 03:58:35;;;;;;;5.47;3.60;;;18.30;99.90;;;;;;5095331;28;20020;-69
2021/10/03 04:01:01;;;;;;;4.20;3.35;;;18.20;99.90;;;;;;5095506;28;20088;-69
2021/10/03 04:03:26;;;;;;;4.70;3.70;;;18.10;99.90;;;;;;5094227;28;20066;-69
2021/10/03 04:05:52;;;;;;;5.30;3.65;;;18.00;99.90;;;;;;5093988;28;20099;-69
2021/10/03 04:08:20;;;;;;;6.25;4.00;;;17.90;99.90;;;;;;5095115;28;20436;-69
2021/10/03 04:10:45;;;;;;;5.68;4.10;;;17.90;99.90;;;;;;5094104;28;20046;-69
2021/10/03 04:13:11;;;;;;;6.38;3.97;;;17.90;99.90;;;;;;5093489;28;20024;-69
2021/10/03 04:15:36;;;;;;;6.55;3.97;;;17.90;99.90;;;;;;5095244;28;20032;-69
2021/10/03 04:18:02;;;;;;;4.75;3.75;;;17.90;99.90;;;;;;5094630;28;20016;-69
2021/10/03 04:20:28;;;;;;;5.80;3.63;;;17.90;99.90;;;;;;5094007;28;20032;-69
2021/10/03 04:22:53;;;;;;;5.63;4.07;;;17.90;99.90;;;;;;5094314;28;20040;-69
2021/10/03 04:25:19;;;;;;;6.88;4.28;;;17.90;99.90;;;;;;5095076;28;20031;-69
2021/10/03 04:27:44;;;;;;;5.40;4.15;;;17.80;99.90;;;;;;5094722;28;20031;-69
2021/10/03 04:30:10;;;;;;;8.48;4.53;;;17.70;99.90;;;;;;5094705;28;20093;-69
2021/10/03 04:32:36;;;;;;;7.53;4.50;;;17.60;99.90;;;;;;5094679;28;20047;-69
2021/10/03 04:35:02;;;;;;;6.70;4.10;;;17.50;99.90;;;;;;5094609;28;20111;-69
2021/10/03 04:37:27;;;;;;;7.53;4.60;;;17.50;99.90;;;;;;5094837;28;20110;-69
2021/10/03 04:39:53;;;;;;;6.63;5.35;;;17.40;99.90;;;;;;5093641;28;20101;-69
2021/10/03 04:42:20;;;;;;;6.60;4.40;;;17.30;99.90;;;;;;5094697;28;20024;-69
2021/10/03 04:44:46;;;;;;;8.38;5.18;;;17.30;99.90;;;;;;5094697;28;20457;-69
2021/10/03 04:47:11;;;;;;;8.57;5.35;;;17.20;99.90;;;;;;5094381;28;20431;-69
2021/10/03 04:49:37;;;;;;;9.38;5.18;;;17.20;99.90;;;;;;5094642;28;20020;-69
2021/10/03 04:52:03;;;;;;;6.57;5.15;;;17.20;99.90;;;;;;5092639;28;20035;-69
2021/10/03 04:54:28;;;;;;;12.52;6.40;;;17.20;99.90;;;;;;5093111;28;20028;-69
2021/10/03 04:56:54;;;;;;;8.57;5.32;;;17.10;99.90;;;;;;5094494;28;20073;-69
2021/10/03 04:59:19;;;;;;;7.90;5.82;;;17.10;99.90;;;;;;5094476;28;20102;-69
2021/10/03 05:01:45;;;;;;;8.18;5.63;;;17.20;99.90;;;;;;5094660;28;20028;-69
2021/10/03 05:04:11;;;;;;;9.73;6.20;;;17.10;99.90;;;;;;5094125;28;20032;-69
2021/10/03 05:06:36;;;;;;;13.43;6.97;;;17.10;99.90;;;;;;5094084;28;20032;-69
2021/10/03 05:09:02;;;;;;;8.52;6.07;;;17.10;99.90;;;;;;5094334;28;20025;-69
2021/10/03 05:11:28;;;;;;;11.05;6.90;;;17.00;99.90;;;;;;5094057;28;20043;-69
2021/10/03 05:13:53;;;;;;;11.43;7.28;;;16.90;99.90;;;;;;5093100;28;20063;-69
2021/10/03 05:16:19;;;;;;;10.10;7.03;;;16.90;99.90;;;;;;5094265;28;20032;-70
2021/10/03 05:18:44;;;;;;;9.52;6.57;;;16.90;99.90;;;;;;5094244;28;20028;-69
2021/10/03 05:21:10;;;;;;;13.40;7.53;;;16.80;99.90;;;;;;5093985;28;20415;-70
2021/10/03 05:23:38;;;;;;;9.85;7.35;;;16.70;99.90;;;;;;5093592;28;20024;-69
2021/10/03 05:26:03;;;;;;;10.30;7.75;;;16.70;99.90;;;;;;5093875;28;20476;-69
2021/10/03 05:28:29;;;;;;;10.70;7.57;;;16.70;99.90;;;;;;5094135;28;20047;-69
2021/10/03 05:30:54;;;;;;;10.13;6.82;;;16.70;99.90;;;;;;5092658;28;20028;-69
2021/10/03 05:33:20;;;;;;;11.98;7.80;;;16.70;99.90;;;;;;5094084;28;20111;-69
2021/10/03 05:35:46;;;;;;;10.98;7.38;;;16.70;99.90;;;;;;5093819;28;20380;-69
2021/10/03 05:38:11;;;;;;;11.00;7.90;;;16.70;99.90;;;;;;5076235;28;20082;-69
2021/10/03 05:40:37;;;;;;;10.52;7.30;;;16.70;99.90;;;;;;5093791;28;20032;-69
2021/10/03 05:43:03;;;;;;;10.73;7.95;;;16.70;99.90;;;;;;5093641;28;20052;-69
2021/10/03 05:45:29;;;;;;;13.60;8.77;;;16.70;99.90;;;;;;5092843;28;20043;-69
2021/10/03 05:47:55;;;;;;;12.43;8.85;;;16.70;99.90;;;;;;5093938;28;20142;-69
2021/10/03 05:50:21;;;;;;;13.70;8.90;;;16.70;99.90;;;;;;5093674;28;20023;-69
2021/10/03 05:52:46;;;;;;;14.68;8.75;;;16.70;99.90;;;;;;5093909;28;20029;-69
2021/10/03 05:55:12;;;;;;;13.98;8.80;;;16.70;99.90;;;;;;5092725;28;20048;-69
2021/10/03 05:57:37;;;;;;;13.52;8.38;;;16.70;99.90;;;;;;5093886;28;20473;-69
2021/10/03 06:00:05;;;;;;;16.85;8.57;;;16.70;99.90;;;;;;5093275;28;20036;-69
2021/10/03 06:02:30;;;;;;;15.05;9.00;;;16.70;99.90;;;;;;5093748;28;20024;-69
2021/10/03 06:04:56;;;;;;;11.35;8.68;;;16.80;99.90;;;;;;5094593;28;20051;-69
2021/10/03 06:07:21;;;;;;;10.95;8.48;;;16.80;99.90;;;;;;5097714;28;20140;-69
2021/10/03 06:09:47;;;;;;;12.55;8.18;;;16.80;99.90;;;;;;5097668;28;20085;-69
2021/10/03 06:12:12;;;;;;;16.00;9.10;;;16.80;99.90;;;;;;5097638;28;20377;-69
2021/10/03 06:14:38;;;;;;;13.70;9.15;;;16.80;99.90;;;;;;5097313;28;20381;-69
2021/10/03 06:17:03;;;;;;;11.68;7.97;;;16.80;99.90;;;;;;5097256;28;20032;-69
2021/10/03 06:19:29;;;;;;;11.77;9.07;;;16.80;99.90;;;;;;5097498;28;20107;-69
2021/10/03 06:21:55;;;;;;;13.85;8.65;;;16.90;99.90;;;;;;5096660;28;20036;-69
2021/10/03 06:24:22;;;;;;;13.25;9.30;;;16.90;99.90;;;;;;5096838;28;20020;-69
2021/10/03 06:26:48;;;;;;;15.25;8.77;;;16.90;99.90;;;;;;5097370;28;20023;-69
2021/10/03 06:29:15;;;;;;;12.00;8.40;;;16.90;99.90;;;;;;5097036;28;20035;-69
2021/10/03 06:31:41;;;;;;;15.10;9.38;;;17.00;99.90;;;;;;5097266;28;20462;-69
2021/10/03 06:34:06;;;;;;;14.88;9.60;;;17.00;99.90;;;;;;5097214;28;20035;-69
2021/10/03 06:36:32;;;;;;;14.95;9.02;;;16.90;99.90;;;;;;5097174;28;20028;-69
2021/10/03 06:38:57;;;;;;;12.95;8.55;;;17.00;99.90;;;;;;5096851;28;20024;-69
2021/10/03 06:41:23;;;;;;;14.70;9.02;;;17.00;99.90;;;;;;5097067;28;20512;-69
2021/10/03 06:43:48;;;;;;;14.82;9.23;;;17.00;99.90;;;;;;5096938;28;20167;-69
2021/10/03 06:46:14;;;;;;;12.85;8.63;;;17.00;99.90;;;;;;5096982;28;20029;-69
2021/10/03 06:48:40;;;;;;;14.02;9.02;;;17.10;99.90;;;;;;5096933;28;20016;-69
2021/10/03 06:51:05;;;;;;;15.35;10.10;;;17.10;99.90;;;;;;5096895;28;20032;-69
2021/10/03 06:53:32;;;;;;;15.52;9.02;;;17.20;99.90;;;;;;5079047;28;20015;-69
2021/10/03 06:55:58;;;;;;;15.10;8.60;;;17.10;99.90;;;;;;5096805;28;20028;-69
2021/10/03 06:58:23;;;;;;;15.48;8.63;;;17.20;99.90;;;;;;5095307;28;20436;-69
2021/10/03 07:00:49;;;;;;;11.48;8.35;;;17.20;99.90;;;;;;5096417;28;20079;-69
2021/10/03 07:03:14;;;;;;;13.82;8.43;;;17.20;99.90;;;;;;5096593;28;20527;-69
2021/10/03 07:05:40;;;;;;;10.45;8.20;;;17.20;99.90;;;;;;5096311;28;20034;-69
2021/10/03 07:08:05;;;;;;;12.73;8.50;;;17.20;99.90;;;;;;5096307;28;20028;-69
2021/10/03 07:10:32;;;;;;;10.50;8.45;;;17.20;99.90;;;;;;5096540;28;20016;-69
2021/10/03 07:12:58;;;;;;;14.43;8.98;;;17.20;99.90;;;;;;5096505;28;20039;-69
2021/10/03 07:15:23;;;;;;;12.23;8.43;;;17.30;99.90;;;;;;5096119;28;20020;-69
2021/10/03 07:17:49;;;;;;;11.13;8.05;;;17.40;99.90;;;;;;5096429;28;20063;-69
2021/10/03 07:20:15;;;;;;;10.73;8.80;;;17.50;99.90;;;;;;5095785;28;20107;-69
2021/10/03 07:22:41;;;;;;;12.07;8.68;;;17.50;99.90;;;;;;5095498;28;20075;-69
2021/10/03 07:25:08;;;;;;;11.30;8.63;;;17.50;99.90;;;;;;5094774;28;20039;-69
2021/10/03 07:27:33;;;;;;;11.68;8.05;;;17.60;99.90;;;;;;5096200;28;20043;-69
2021/10/03 07:29:59;;;;;;;15.27;7.80;;;17.70;99.90;;;;;;5094713;28;20058;-69
2021/10/03 07:32:25;;;;;;;12.23;7.68;;;17.80;99.90;;;;;;5096085;28;20119;-69
2021/10/03 07:34:50;;;;;;;12.02;8.32;;;17.80;99.90;;;;;;5095498;28;20043;-69
2021/10/03 07:37:16;;;;;;;11.88;7.50;;;17.80;99.90;;;;;;5096003;28;20043;-69
2021/10/03 07:39:41;;;;;;;10.40;7.85;;;17.90;99.90;;;;;;5095394;28;20032;-69
2021/10/03 07:42:07;;;;;;;11.20;7.72;;;17.90;99.90;;;;;;5095827;28;20077;-69
2021/10/03 07:44:33;;;;;;;10.88;8.23;;;18.00;99.90;;;;;;5095569;28;20024;-69
2021/10/03 07:46:59;;;;;;;9.50;8.13;;;17.90;99.90;;;;;;5095539;28;20028;-69
2021/10/03 07:49:24;;;;;;;12.98;7.82;;;18.00;99.90;;;;;;5095218;28;20073;-69
2021/10/03 07:51:50;;;;;;;10.40;7.38;;;18.10;99.90;;;;;;5095710;28;20028;-69
2021/10/03 07:54:15;;;;;;;12.02;7.80;;;18.10;99.90;;;;;;5095068;28;20020;-69
2021/10/03 07:56:41;;;;;;;10.57;7.60;;;18.20;99.90;;;;;;5095334;28;20027;-69
2021/10/03 07:59:07;;;;;;;12.63;7.80;;;18.20;99.90;;;;;;5095543;28;20031;-69
2021/10/03 08:01:32;;;;;;;10.80;7.80;;;18.20;99.90;;;;;;5095532;28;20024;-69
2021/10/03 08:03:58;;;;;;;9.50;7.15;;;18.30;99.90;;;;;;5094254;28;20035;-69
2021/10/03 08:06:27;;;;;;;11.05;7.90;;;18.30;99.90;;;;;;5094280;28;20136;-69
2021/10/03 08:08:53;;;;;;;10.43;7.20;;;18.40;99.90;;;;;;5095386;28;20023;-69
2021/10/03 08:11:18;;;;;;;9.70;7.85;;;18.40;99.90;;;;;;5095029;28;20107;-69
2021/10/03 08:13:44;;;;;;;11.45;7.65;;;18.50;99.90;;;;;;5094717;28;20085;-69
2021/10/03 08:16:09;;;;;;;9.38;7.03;;;18.60;99.90;;;;;;5095280;28;20111;-69
2021/10/03 08:18:35;;;;;;;9.65;6.97;;;18.60;99.90;;;;;;5095191;28;20386;-69
2021/10/03 08:21:02;;;;;;;9.27;6.97;;;18.50;99.90;;;;;;5094920;28;20032;-70
2021/10/03 08:23:27;;;;;;;9.43;6.95;;;18.60;99.90;;;;;;5095029;28;20023;-69
2021/10/03 08:25:53;;;;;;;9.00;6.32;;;18.50;99.90;;;;;;5095059;28;20024;-69
2021/10/03 08:28:18;;;;;;;7.68;6.68;;;18.60;99.90;;;;;;5094050;28;20028;-69
2021/10/03 08:30:44;;;;;;;10.05;6.10;;;18.50;99.90;;;;;;5093507;28;20097;-69
2021/10/03 08:33:10;;;;;;;8.20;6.35;;;18.60;99.90;;;;;;5093097;28;20036;-69
2021/10/03 08:35:36;;;;;;;9.82;7.35;;;18.50;99.90;;;;;;5094168;28;20027;-69
2021/10/03 08:38:02;;;;;;;11.60;6.55;;;18.60;99.90;;;;;;5094779;28;20028;-70
2021/10/03 08:40:28;;;;;;;8.90;6.30;;;18.50;99.90;;;;;;5093073;28;20405;-69
2021/10/03 08:42:54;;;;;;;9.65;5.70;;;18.50;99.90;;;;;;5094409;28;20031;-69
2021/10/03 08:45:20;;;;;;;9.48;6.70;;;18.60;99.90;;;;;;5094709;28;20561;-69
2021/10/03 08:47:45;;;;;;;8.95;6.22;;;18.50;99.90;;;;;;5094388;28;20020;-69
2021/10/03 08:50:14;;;;;;;10.13;6.95;;;18.40;99.90;;;;;;5094350;28;20099;-69
2021/10/03 08:52:42;;;;;;;9.50;6.78;;;18.40;99.90;;;;;;5094356;28;20024;-69
2021/10/03 08:55:09;;;;;;;7.75;6.90;;;18.20;99.90;;;;;;5094584;28;20028;-69
2021/10/03 08:57:35;;;;;;;11.88;7.22;;;18.20;99.90;;;;;;5094500;28;20020;-69
2021/10/03 09:00:05;;;;;;;9.43;6.50;;;18.10;99.90;;;;;;5093916;28;20449;-69
2021/10/03 09:03:04;;;;;;;12.15;7.18;;;18.20;99.90;;;;;;5094383;28;20024;-69
2021/10/03 09:05:33;;;;;;;10.15;6.80;;;18.10;99.90;;;;;;5093065;28;20020;-69
2021/10/03 09:11:03;;;;;;;13.27;6.35;;;18.10;99.90;;;;;;5091903;28;20436;-69
2021/10/03 09:13:35;;;;;;;10.30;7.18;;;18.10;99.90;;;;;;5091316;28;20024;-70
2021/10/03 09:16:09;;;;;;;11.38;6.75;;;18.10;99.90;;;;;;5091275;28;20017;-69
2021/10/03 09:18:56;;;;;;;8.55;6.45;;;18.20;99.90;;;;;;5091521;28;20020;-69
2021/10/03 09:24:23;;;;;;;14.30;7.07;;;18.20;99.90;;;;;;5112267;27;20735;-69
2021/10/03 09:27:03;;;;;;;7.57;6.65;;;18.20;99.90;;;;;;5111646;28;20393;-69
2021/10/03 09:29:32;;;;;;;10.98;7.35;;;18.20;99.90;;;;;;5111601;28;20020;-69
2021/10/03 09:32:17;;;;;;;8.10;6.30;;;18.30;99.90;;;;;;5110014;28;20031;-69
2021/10/03 09:34:47;;;;;;;9.35;6.68;;;18.20;99.90;;;;;;5111753;28;20465;-70
2021/10/03 09:37:19;;;;;;;12.07;7.55;;;18.20;99.90;;;;;;5111479;28;20031;-69
2021/10/03 09:39:45;;;;;;;9.07;6.63;;;18.10;99.90;;;;;;5111724;28;20023;-70
2021/10/03 09:42:15;;;;;;;10.70;7.13;;;18.10;99.90;;;;;;5111559;28;20369;-69
2021/10/03 09:45:12;;;;;;;10.07;6.88;;;18.20;99.90;;;;;;5111616;28;20118;-69
2021/10/03 09:47:39;;;;;;;8.80;7.00;;;18.20;99.90;;;;;;5111529;28;20103;-69
2021/10/03 09:50:07;;;;;;;7.68;6.05;;;18.20;99.90;;;;;;5111515;28;20081;-70
2021/10/03 09:52:33;;;;;;;14.88;7.18;;;18.20;99.90;;;;;;5111478;28;20020;-70
2021/10/03 09:55:01;;;;;;;9.38;6.30;;;18.30;99.90;;;;;;5111084;28;20147;-69
2021/10/03 09:57:27;;;;;;;8.57;6.32;;;18.20;99.90;;;;;;5111327;28;20354;-69
2021/10/03 09:59:53;;;;;;;8.57;7.20;;;18.20;99.90;;;;;;5111290;28;20020;-69
2021/10/03 10:02:19;;;;;;;9.95;6.70;;;18.20;99.90;;;;;;5111180;28;20457;-69
2021/10/03 10:04:45;;;;;;;7.53;6.00;;;18.20;99.90;;;;;;5111257;28;20028;-69
2021/10/03 10:07:12;;;;;;;8.63;6.70;;;18.20;99.90;;;;;;5111055;28;20361;-70
2021/10/03 10:09:38;;;;;;;7.72;6.40;;;18.20;99.90;;;;;;5111093;28;20473;-69
2021/10/03 10:12:11;;;;;;;10.68;6.93;;;18.20;99.90;;;;;;5111062;28;20036;-69
2021/10/03 10:14:40;;;;;;;6.93;6.10;;;18.20;99.90;;;;;;5111042;28;20020;-69
2021/10/03 10:17:29;;;;;;;7.60;6.53;;;18.20;99.90;;;;;;5110713;28;20097;-69
2021/10/03 10:19:55;;;;;;;10.13;6.90;;;18.30;99.90;;;;;;5110377;28;20039;-70
2021/10/03 10:25:03;;;;;;;9.32;6.47;;;18.30;99.90;;;;;;5071613;28;20407;-69
2021/10/03 10:30:13;;;;;;;6.93;5.65;;;18.30;99.90;;;;;;5112176;27;20791;-69
2021/10/03 10:33:00;;;;;;;8.05;5.40;;;18.50;99.90;;;;;;5111926;28;20031;-69
2021/10/03 10:35:30;;;;;;;7.72;5.55;;;18.50;99.90;;;;;;5111308;28;20012;-69
2021/10/03 10:40:33;;;;;;;6.65;5.75;;;18.60;99.90;;;;;;5112214;27;20178;-69
2021/10/03 10:45:44;;;;;;;7.32;5.70;;;18.80;99.90;;;;;;5071598;28;20411;-69
2021/10/03 10:50:55;;;;;;;9.23;6.00;;;18.80;99.90;;;;;;5112274;27;20287;-69
2021/10/03 10:53:25;;;;;;;6.60;5.50;;;18.70;99.90;;;;;;5111920;28;20379;-69
2021/10/03 10:56:12;;;;;;;7.30;6.15;;;18.80;99.90;;;;;;5111653;28;20102;-69
2021/10/03 11:04:22;;;;;;;7.43;6.05;;;18.80;99.90;;;;;;5112248;27;20780;-69
2021/10/03 11:09:27;;;;;;;7.45;6.13;;;18.90;99.90;;;;;;5112241;27;20288;-69
2021/10/03 11:14:31;;;;;;;9.32;6.38;;;19.00;99.90;;;;;;5112226;27;20457;-69
2021/10/03 11:17:00;;;;;;;8.75;5.95;;;19.10;99.90;;;;;;5111936;28;20461;-69
2021/10/03 11:19:44;;;;;;;11.25;5.40;;;19.10;99.90;;;;;;5111489;28;20099;-69
2021/10/03 11:22:14;;;;;;;7.07;5.57;;;19.10;99.90;;;;;;5111530;28;20099;-69
2021/10/03 11:24:47;;;;;;;8.75;6.00;;;19.10;99.90;;;;;;5111692;28;20457;-69
2021/10/03 11:27:16;;;;;;;10.75;5.93;;;19.20;99.90;;;;;;5111175;28;20032;-69
2021/10/03 11:29:45;;;;;;;7.50;5.68;;;19.20;99.90;;;;;;5111326;28;20039;-69
2021/10/03 11:32:16;;;;;;;8.65;6.55;;;19.10;99.90;;;;;;5111493;28;20044;-69
2021/10/03 11:34:51;;;;;;;10.70;6.47;;;19.10;99.90;;;;;;5110500;28;20039;-69
2021/10/03 11:37:36;;;;;;;7.57;5.95;;;19.10;99.90;;;;;;5111528;28;20023;-69
2021/10/03 11:42:45;;;;;;;8.25;5.75;;;19.20;99.90;;;;;;5112245;27;20359;-69
2021/10/03 11:45:33;;;;;;;7.10;5.90;;;19.30;99.90;;;;;;5110413;28;20038;-69
2021/10/03 11:48:05;;;;;;;8.32;5.75;;;19.40;99.90;;;;;;5110465;28;20023;-69
2021/10/03 11:50:37;;;;;;;7.93;5.43;;;19.40;99.90;;;;;;5111837;28;20026;-69
2021/10/03 11:53:20;;;;;;;8.52;5.95;;;19.50;99.90;;;;;;5110605;28;20480;-69
2021/10/03 11:55:50;;;;;;;7.65;5.78;;;19.60;99.90;;;;;;5111475;28;20027;-70
2021/10/03 11:58:18;;;;;;;10.30;5.55;;;19.70;99.90;;;;;;5111647;28;20030;-69
2021/10/03 12:00:57;;;;;;;6.72;5.45;;;19.90;99.90;;;;;;5110389;28;20077;-69
2021/10/03 12:03:26;;;;;;;6.68;4.90;;;20.00;99.90;;;;;;5111299;28;20024;-69
2021/10/03 12:05:53;;;;;;;6.95;5.47;;;20.10;99.90;;;;;;5111498;28;20176;-70
2021/10/03 12:08:20;;;;;;;7.35;5.80;;;20.20;99.90;;;;;;5111496;28;20034;-69
2021/10/03 12:10:51;;;;;;;6.72;5.20;;;20.20;99.90;;;;;;5111144;28;20024;-70
2021/10/03 12:13:26;;;;;;;7.53;5.28;;;20.30;99.90;;;;;;5111096;28;20051;-70
2021/10/03 12:16:07;;;;;;;9.65;5.20;;;20.40;99.90;;;;;;5111086;28;20070;-69
2021/10/03 12:18:37;;;;;;;7.13;5.07;;;20.50;99.90;;;;;;5111040;28;20065;-70
2021/10/03 12:21:07;;;;;;;9.45;5.25;;;20.50;99.90;;;;;;5111189;28;20465;-70
2021/10/03 12:26:46;;;;;;;7.63;5.43;;;20.30;99.90;;;;;;5112225;27;20355;-69
2021/10/03 12:32:09;;;;;;;7.45;5.15;;;20.40;99.90;;;;;;5071674;28;20410;-69
2021/10/03 12:34:39;;;;;;;5.90;4.68;;;20.40;99.90;;;;;;5071091;28;20086;-70
2021/10/03 12:37:08;;;;;;;5.75;5.05;;;20.30;99.90;;;;;;5071082;28;20021;-69
2021/10/03 12:39:37;;;;;;;10.13;5.55;;;20.30;99.90;;;;;;5070164;28;20021;-70
2021/10/03 12:42:08;;;;;;;7.63;5.35;;;20.10;99.90;;;;;;5070946;28;20082;-69
2021/10/03 12:44:34;;;;;;;9.93;5.05;;;20.00;99.90;;;;;;5071153;28;20100;-69
2021/10/03 12:47:02;;;;;;;6.53;4.93;;;19.80;99.90;;;;;;5071154;28;20024;-69
2021/10/03 12:49:28;;;;;;;9.40;5.20;;;19.80;99.90;;;;;;5070737;28;20024;-69
2021/10/03 12:51:54;;;;;;;7.65;5.32;;;19.80;99.90;;;;;;5069626;28;20024;-69
2021/10/03 12:54:19;;;;;;;6.55;5.13;;;19.80;99.90;;;;;;5070989;28;20366;-69
2021/10/03 12:56:45;;;;;;;5.55;4.97;;;19.80;99.90;;;;;;5069802;28;20028;-69
2021/10/03 12:59:10;;;;;;;7.78;5.20;;;19.80;99.90;;;;;;5069710;28;20123;-70
2021/10/03 13:01:36;;;;;;;7.18;5.07;;;19.80;99.90;;;;;;5070883;28;20068;-70
2021/10/03 13:04:01;;;;;;;6.47;4.90;;;19.80;99.90;;;;;;5070528;28;20025;-70
2021/10/03 13:06:27;;;;;;;8.95;5.32;;;19.80;99.90;;;;;;5070480;28;20029;-70
2021/10/03 13:08:52;;;;;;;6.85;5.20;;;19.80;99.90;;;;;;5070669;28;20021;-69
2021/10/03 13:11:19;;;;;;;7.13;5.13;;;19.80;99.90;;;;;;5070317;28;20067;-69
2021/10/03 13:13:45;;;;;;;5.43;4.80;;;19.90;99.90;;;;;;5070595;28;20020;-70
2021/10/03 13:16:11;;;;;;;14.63;5.30;;;20.00;99.90;;;;;;5070281;28;20027;-69
2021/10/03 13:18:36;;;;;;;5.97;5.07;;;20.00;99.90;;;;;;5069050;28;20112;-69
2021/10/03 13:21:04;;;;;;;5.93;4.93;;;20.10;99.90;;;;;;5069918;28;20099;-70
2021/10/03 13:23:38;;;;;;;7.45;5.55;;;20.00;99.90;;;;;;5069815;28;20127;-70